sensor_id;sensor_type;location;lat;lon;timestamp;P1;durP1;ratioP1;P2;durP2;ratioP2
10847;SDS011;5477;48.806;9.154;2023-12-20T00:01:22;2.67;;;1.50;;
10847;SDS011;5477;48.806;9.154;2023-12-20T00:03:50;2.20;;;1.67;;
10847;SDS011;5477;48.806;9.154;2023-12-20T00:06:18;5.60;;;3.23;;
10847;SDS011;5477;48.806;9.154;2023-12-20T00:08:47;1.70;;;1.50;;
10847;SDS011;5477;48.806;9.154;2023-12-20T00:11:15;2.63;;;1.63;;
10847;SDS011;5477;48.806;9.154;2023-12-20T00:13:43;3.17;;;1.70;;
10847;SDS011;5477;48.806;9.154;2023-12-20T00:16:16;2.70;;;1.70;;
10847;SDS011;5477;48.806;9.154;2023-12-20T00:18:45;4.03;;;2.80;;
10847;SDS011;5477;48.806;9.154;2023-12-20T00:21:13;1.77;;;1.47;;
10847;SDS011;5477;48.806;9.154;2023-12-20T00:23:41;1.47;;;1.27;;
10847;SDS011;5477;48.806;9.154;2023-12-20T00:26:09;0.90;;;0.90;;
10847;SDS011;5477;48.806;9.154;2023-12-20T00:28:37;1.20;;;0.93;;
10847;SDS011;5477;48.806;9.154;2023-12-20T00:31:05;0.80;;;0.80;;
10847;SDS011;5477;48.806;9.154;2023-12-20T00:33:34;1.47;;;1.00;;
10847;SDS011;5477;48.806;9.154;2023-12-20T00:36:03;1.40;;;1.10;;
10847;SDS011;5477;48.806;9.154;2023-12-20T00:38:32;1.83;;;1.20;;
10847;SDS011;5477;48.806;9.154;2023-12-20T00:41:00;1.30;;;1.20;;
10847;SDS011;5477;48.806;9.154;2023-12-20T00:43:28;2.07;;;1.00;;
10847;SDS011;5477;48.806;9.154;2023-12-20T00:45:56;1.10;;;1.00;;
10847;SDS011;5477;48.806;9.154;2023-12-20T00:48:26;0.80;;;0.80;;
10847;SDS011;5477;48.806;9.154;2023-12-20T00:50:58;1.30;;;1.03;;
10847;SDS011;5477;48.806;9.154;2023-12-20T00:53:26;1.07;;;0.93;;
10847;SDS011;5477;48.806;9.154;2023-12-20T00:55:54;2.17;;;1.30;;
10847;SDS011;5477;48.806;9.154;2023-12-20T00:58:22;1.53;;;0.93;;
10847;SDS011;5477;48.806;9.154;2023-12-20T01:00:50;1.20;;;0.93;;
10847;SDS011;5477;48.806;9.154;2023-12-20T01:03:18;1.47;;;1.37;;
10847;SDS011;5477;48.806;9.154;2023-12-20T01:05:46;3.13;;;1.07;;
10847;SDS011;5477;48.806;9.154;2023-12-20T01:08:15;1.30;;;1.07;;
10847;SDS011;5477;48.806;9.154;2023-12-20T01:10:43;1.47;;;1.20;;
10847;SDS011;5477;48.806;9.154;2023-12-20T01:13:13;1.17;;;0.97;;
10847;SDS011;5477;48.806;9.154;2023-12-20T01:15:41;1.23;;;1.13;;
10847;SDS011;5477;48.806;9.154;2023-12-20T01:18:09;1.27;;;1.10;;
10847;SDS011;5477;48.806;9.154;2023-12-20T01:20:38;2.70;;;1.20;;
10847;SDS011;5477;48.806;9.154;2023-12-20T01:23:06;1.20;;;1.10;;
10847;SDS011;5477;48.806;9.154;2023-12-20T01:25:35;1.50;;;1.10;;
10847;SDS011;5477;48.806;9.154;2023-12-20T01:28:04;2.17;;;1.20;;
10847;SDS011;5477;48.806;9.154;2023-12-20T01:30:32;1.23;;;0.90;;
10847;SDS011;5477;48.806;9.154;2023-12-20T01:33:00;1.97;;;1.33;;
10847;SDS011;5477;48.806;9.154;2023-12-20T01:35:29;1.90;;;1.50;;
10847;SDS011;5477;48.806;9.154;2023-12-20T01:37:57;4.70;;;2.97;;
10847;SDS011;5477;48.806;9.154;2023-12-20T01:40:25;4.97;;;2.37;;
10847;SDS011;5477;48.806;9.154;2023-12-20T01:43:01;1.63;;;1.37;;
10847;SDS011;5477;48.806;9.154;2023-12-20T01:45:34;2.40;;;1.40;;
10847;SDS011;5477;48.806;9.154;2023-12-20T01:48:02;1.60;;;1.40;;
10847;SDS011;5477;48.806;9.154;2023-12-20T01:50:32;4.40;;;1.80;;
10847;SDS011;5477;48.806;9.154;2023-12-20T01:53:04;3.20;;;2.13;;
10847;SDS011;5477;48.806;9.154;2023-12-20T01:55:34;3.13;;;2.00;;
10847;SDS011;5477;48.806;9.154;2023-12-20T01:58:07;3.00;;;1.90;;
10847;SDS011;5477;48.806;9.154;2023-12-20T02:00:36;2.90;;;1.30;;
10847;SDS011;5477;48.806;9.154;2023-12-20T02:03:05;1.93;;;1.40;;
10847;SDS011;5477;48.806;9.154;2023-12-20T02:05:33;2.33;;;1.30;;
10847;SDS011;5477;48.806;9.154;2023-12-20T02:08:02;1.43;;;1.30;;
10847;SDS011;5477;48.806;9.154;2023-12-20T02:10:30;2.67;;;1.50;;
10847;SDS011;5477;48.806;9.154;2023-12-20T02:12:58;1.53;;;1.00;;
10847;SDS011;5477;48.806;9.154;2023-12-20T02:15:27;1.53;;;1.30;;
10847;SDS011;5477;48.806;9.154;2023-12-20T02:17:55;1.73;;;1.10;;
10847;SDS011;5477;48.806;9.154;2023-12-20T02:20:24;1.97;;;1.30;;
10847;SDS011;5477;48.806;9.154;2023-12-20T02:22:53;1.33;;;1.20;;
10847;SDS011;5477;48.806;9.154;2023-12-20T02:25:21;2.57;;;1.70;;
10847;SDS011;5477;48.806;9.154;2023-12-20T02:27:49;3.83;;;2.20;;
10847;SDS011;5477;48.806;9.154;2023-12-20T02:30:18;2.03;;;1.60;;
10847;SDS011;5477;48.806;9.154;2023-12-20T02:32:46;1.57;;;1.47;;
10847;SDS011;5477;48.806;9.154;2023-12-20T02:35:15;1.20;;;1.10;;
10847;SDS011;5477;48.806;9.154;2023-12-20T02:37:43;3.60;;;1.80;;
10847;SDS011;5477;48.806;9.154;2023-12-20T02:40:12;4.23;;;2.70;;
10847;SDS011;5477;48.806;9.154;2023-12-20T02:42:41;1.63;;;1.50;;
10847;SDS011;5477;48.806;9.154;2023-12-20T02:45:09;1.73;;;1.50;;
10847;SDS011;5477;48.806;9.154;2023-12-20T02:47:37;3.53;;;1.30;;
10847;SDS011;5477;48.806;9.154;2023-12-20T02:50:05;2.07;;;1.30;;
10847;SDS011;5477;48.806;9.154;2023-12-20T02:52:34;2.23;;;1.40;;
10847;SDS011;5477;48.806;9.154;2023-12-20T02:55:02;2.53;;;1.53;;
10847;SDS011;5477;48.806;9.154;2023-12-20T02:57:32;3.57;;;1.30;;
10847;SDS011;5477;48.806;9.154;2023-12-20T03:00:03;2.57;;;1.33;;
10847;SDS011;5477;48.806;9.154;2023-12-20T03:02:32;2.50;;;1.37;;
10847;SDS011;5477;48.806;9.154;2023-12-20T03:05:00;1.50;;;1.40;;
10847;SDS011;5477;48.806;9.154;2023-12-20T03:07:28;2.23;;;1.70;;
10847;SDS011;5477;48.806;9.154;2023-12-20T03:09:56;3.30;;;1.47;;
10847;SDS011;5477;48.806;9.154;2023-12-20T03:12:46;2.10;;;1.60;;
10847;SDS011;5477;48.806;9.154;2023-12-20T03:15:14;2.37;;;1.60;;
10847;SDS011;5477;48.806;9.154;2023-12-20T03:17:42;0.93;;;0.80;;
10847;SDS011;5477;48.806;9.154;2023-12-20T03:20:11;0.70;;;0.70;;
10847;SDS011;5477;48.806;9.154;2023-12-20T03:22:38;1.63;;;1.03;;
10847;SDS011;5477;48.806;9.154;2023-12-20T03:25:06;2.87;;;1.37;;
10847;SDS011;5477;48.806;9.154;2023-12-20T03:27:36;2.30;;;1.37;;
10847;SDS011;5477;48.806;9.154;2023-12-20T03:30:07;4.20;;;1.90;;
10847;SDS011;5477;48.806;9.154;2023-12-20T03:32:36;2.23;;;1.30;;
10847;SDS011;5477;48.806;9.154;2023-12-20T03:35:05;0.67;;;0.67;;
10847;SDS011;5477;48.806;9.154;2023-12-20T03:37:34;1.17;;;0.90;;
10847;SDS011;5477;48.806;9.154;2023-12-20T03:40:02;0.50;;;0.50;;
10847;SDS011;5477;48.806;9.154;2023-12-20T03:42:30;0.60;;;0.60;;
10847;SDS011;5477;48.806;9.154;2023-12-20T03:44:58;1.00;;;0.60;;
10847;SDS011;5477;48.806;9.154;2023-12-20T03:47:28;0.30;;;0.30;;
10847;SDS011;5477;48.806;9.154;2023-12-20T03:49:56;1.10;;;0.30;;
10847;SDS011;5477;48.806;9.154;2023-12-20T03:52:24;0.60;;;0.47;;
10847;SDS011;5477;48.806;9.154;2023-12-20T03:54:52;0.40;;;0.40;;
10847;SDS011;5477;48.806;9.154;2023-12-20T03:57:20;1.30;;;0.40;;
10847;SDS011;5477;48.806;9.154;2023-12-20T03:59:48;0.30;;;0.30;;
10847;SDS011;5477;48.806;9.154;2023-12-20T04:02:16;0.73;;;0.50;;
10847;SDS011;5477;48.806;9.154;2023-12-20T04:04:46;1.30;;;0.70;;
10847;SDS011;5477;48.806;9.154;2023-12-20T04:07:14;0.50;;;0.50;;
10847;SDS011;5477;48.806;9.154;2023-12-20T04:09:42;0.90;;;0.87;;
10847;SDS011;5477;48.806;9.154;2023-12-20T04:12:11;1.60;;;1.40;;
10847;SDS011;5477;48.806;9.154;2023-12-20T04:14:39;2.13;;;1.20;;
10847;SDS011;5477;48.806;9.154;2023-12-20T04:17:07;1.00;;;0.70;;
10847;SDS011;5477;48.806;9.154;2023-12-20T04:19:35;1.07;;;0.73;;
10847;SDS011;5477;48.806;9.154;2023-12-20T04:22:04;1.00;;;0.90;;
10847;SDS011;5477;48.806;9.154;2023-12-20T04:24:32;0.70;;;0.70;;
10847;SDS011;5477;48.806;9.154;2023-12-20T04:27:01;1.17;;;0.80;;
10847;SDS011;5477;48.806;9.154;2023-12-20T04:29:29;0.40;;;0.40;;
10847;SDS011;5477;48.806;9.154;2023-12-20T04:31:57;0.50;;;0.50;;
10847;SDS011;5477;48.806;9.154;2023-12-20T04:34:25;0.67;;;0.67;;
10847;SDS011;5477;48.806;9.154;2023-12-20T04:36:53;0.63;;;0.50;;
10847;SDS011;5477;48.806;9.154;2023-12-20T04:39:26;0.53;;;0.53;;
10847;SDS011;5477;48.806;9.154;2023-12-20T04:41:54;0.43;;;0.43;;
10847;SDS011;5477;48.806;9.154;2023-12-20T04:44:22;0.33;;;0.33;;
10847;SDS011;5477;48.806;9.154;2023-12-20T04:46:54;0.47;;;0.47;;
10847;SDS011;5477;48.806;9.154;2023-12-20T04:49:22;0.40;;;0.40;;
10847;SDS011;5477;48.806;9.154;2023-12-20T04:51:51;0.60;;;0.50;;
10847;SDS011;5477;48.806;9.154;2023-12-20T04:54:20;0.40;;;0.40;;
10847;SDS011;5477;48.806;9.154;2023-12-20T04:56:49;0.30;;;0.30;;
10847;SDS011;5477;48.806;9.154;2023-12-20T04:59:17;0.40;;;0.40;;
10847;SDS011;5477;48.806;9.154;2023-12-20T05:01:45;0.40;;;0.40;;
10847;SDS011;5477;48.806;9.154;2023-12-20T05:04:13;0.50;;;0.50;;
10847;SDS011;5477;48.806;9.154;2023-12-20T05:06:41;0.33;;;0.33;;
10847;SDS011;5477;48.806;9.154;2023-12-20T05:09:09;1.23;;;0.50;;
10847;SDS011;5477;48.806;9.154;2023-12-20T05:11:38;0.30;;;0.30;;
10847;SDS011;5477;48.806;9.154;2023-12-20T05:14:07;0.40;;;0.40;;
10847;SDS011;5477;48.806;9.154;2023-12-20T05:16:35;0.30;;;0.30;;
10847;SDS011;5477;48.806;9.154;2023-12-20T05:19:03;0.67;;;0.50;;
10847;SDS011;5477;48.806;9.154;2023-12-20T05:21:33;0.40;;;0.40;;
10847;SDS011;5477;48.806;9.154;2023-12-20T05:24:02;0.47;;;0.47;;
10847;SDS011;5477;48.806;9.154;2023-12-20T05:26:30;0.40;;;0.40;;
10847;SDS011;5477;48.806;9.154;2023-12-20T05:28:58;4.07;;;0.90;;
10847;SDS011;5477;48.806;9.154;2023-12-20T05:31:28;0.30;;;0.30;;
10847;SDS011;5477;48.806;9.154;2023-12-20T05:33:56;0.53;;;0.40;;
10847;SDS011;5477;48.806;9.154;2023-12-20T05:36:24;0.40;;;0.40;;
10847;SDS011;5477;48.806;9.154;2023-12-20T05:38:53;0.40;;;0.40;;
10847;SDS011;5477;48.806;9.154;2023-12-20T05:41:21;0.40;;;0.40;;
10847;SDS011;5477;48.806;9.154;2023-12-20T05:43:49;0.50;;;0.40;;
10847;SDS011;5477;48.806;9.154;2023-12-20T05:46:17;0.57;;;0.50;;
10847;SDS011;5477;48.806;9.154;2023-12-20T05:48:46;0.63;;;0.60;;
10847;SDS011;5477;48.806;9.154;2023-12-20T05:51:15;0.63;;;0.60;;
10847;SDS011;5477;48.806;9.154;2023-12-20T05:53:43;0.73;;;0.60;;
10847;SDS011;5477;48.806;9.154;2023-12-20T05:56:11;0.70;;;0.50;;
10847;SDS011;5477;48.806;9.154;2023-12-20T05:58:39;0.60;;;0.40;;
10847;SDS011;5477;48.806;9.154;2023-12-20T06:01:08;0.57;;;0.57;;
10847;SDS011;5477;48.806;9.154;2023-12-20T06:03:36;0.53;;;0.47;;
10847;SDS011;5477;48.806;9.154;2023-12-20T06:06:07;0.70;;;0.50;;
10847;SDS011;5477;48.806;9.154;2023-12-20T06:08:42;0.50;;;0.50;;
10847;SDS011;5477;48.806;9.154;2023-12-20T06:11:10;0.53;;;0.53;;
10847;SDS011;5477;48.806;9.154;2023-12-20T06:13:40;0.87;;;0.70;;
10847;SDS011;5477;48.806;9.154;2023-12-20T06:16:08;0.93;;;0.60;;
10847;SDS011;5477;48.806;9.154;2023-12-20T06:18:36;0.83;;;0.50;;
10847;SDS011;5477;48.806;9.154;2023-12-20T06:21:04;0.60;;;0.60;;
10847;SDS011;5477;48.806;9.154;2023-12-20T06:23:34;1.03;;;0.70;;
10847;SDS011;5477;48.806;9.154;2023-12-20T06:26:03;3.87;;;2.50;;
10847;SDS011;5477;48.806;9.154;2023-12-20T06:28:31;5.53;;;3.60;;
10847;SDS011;5477;48.806;9.154;2023-12-20T06:30:59;1.43;;;1.33;;
10847;SDS011;5477;48.806;9.154;2023-12-20T06:33:27;0.80;;;0.77;;
10847;SDS011;5477;48.806;9.154;2023-12-20T06:35:55;2.23;;;0.77;;
10847;SDS011;5477;48.806;9.154;2023-12-20T06:38:23;4.47;;;3.60;;
10847;SDS011;5477;48.806;9.154;2023-12-20T06:40:52;1.23;;;0.93;;
10847;SDS011;5477;48.806;9.154;2023-12-20T06:43:23;2.27;;;0.90;;
10847;SDS011;5477;48.806;9.154;2023-12-20T06:46:11;1.37;;;0.90;;
10847;SDS011;5477;48.806;9.154;2023-12-20T06:48:39;1.23;;;0.90;;
10847;SDS011;5477;48.806;9.154;2023-12-20T06:51:10;0.70;;;0.70;;
10847;SDS011;5477;48.806;9.154;2023-12-20T06:53:39;1.50;;;1.40;;
10847;SDS011;5477;48.806;9.154;2023-12-20T06:56:08;1.93;;;1.83;;
10847;SDS011;5477;48.806;9.154;2023-12-20T06:58:40;4.20;;;3.80;;
10847;SDS011;5477;48.806;9.154;2023-12-20T07:01:10;4.60;;;4.30;;
10847;SDS011;5477;48.806;9.154;2023-12-20T07:03:39;1.23;;;1.00;;
10847;SDS011;5477;48.806;9.154;2023-12-20T07:06:08;1.30;;;1.20;;
10847;SDS011;5477;48.806;9.154;2023-12-20T07:08:36;1.53;;;1.10;;
10847;SDS011;5477;48.806;9.154;2023-12-20T07:11:04;1.10;;;1.00;;
10847;SDS011;5477;48.806;9.154;2023-12-20T07:13:33;1.70;;;1.30;;
10847;SDS011;5477;48.806;9.154;2023-12-20T07:16:01;1.40;;;1.30;;
10847;SDS011;5477;48.806;9.154;2023-12-20T07:18:30;2.30;;;1.60;;
10847;SDS011;5477;48.806;9.154;2023-12-20T07:20:58;2.10;;;1.90;;
10847;SDS011;5477;48.806;9.154;2023-12-20T07:23:26;1.83;;;1.73;;
10847;SDS011;5477;48.806;9.154;2023-12-20T07:25:54;2.30;;;2.00;;
10847;SDS011;5477;48.806;9.154;2023-12-20T07:28:22;2.20;;;2.00;;
10847;SDS011;5477;48.806;9.154;2023-12-20T07:30:52;2.03;;;1.80;;
10847;SDS011;5477;48.806;9.154;2023-12-20T07:33:20;2.00;;;1.80;;
10847;SDS011;5477;48.806;9.154;2023-12-20T07:35:49;1.53;;;1.40;;
10847;SDS011;5477;48.806;9.154;2023-12-20T07:38:18;1.50;;;1.40;;
10847;SDS011;5477;48.806;9.154;2023-12-20T07:40:46;2.30;;;1.83;;
10847;SDS011;5477;48.806;9.154;2023-12-20T07:43:14;1.60;;;1.43;;
10847;SDS011;5477;48.806;9.154;2023-12-20T07:45:42;1.90;;;1.80;;
10847;SDS011;5477;48.806;9.154;2023-12-20T07:48:12;1.83;;;1.67;;
10847;SDS011;5477;48.806;9.154;2023-12-20T07:50:40;1.97;;;1.70;;
10847;SDS011;5477;48.806;9.154;2023-12-20T07:53:08;2.20;;;1.70;;
10847;SDS011;5477;48.806;9.154;2023-12-20T07:55:36;2.73;;;1.90;;
10847;SDS011;5477;48.806;9.154;2023-12-20T07:58:04;2.07;;;1.87;;
10847;SDS011;5477;48.806;9.154;2023-12-20T08:00:32;2.63;;;1.93;;
10847;SDS011;5477;48.806;9.154;2023-12-20T08:03:00;2.90;;;2.07;;
10847;SDS011;5477;48.806;9.154;2023-12-20T08:05:31;3.83;;;2.00;;
10847;SDS011;5477;48.806;9.154;2023-12-20T08:07:59;3.60;;;2.10;;
10847;SDS011;5477;48.806;9.154;2023-12-20T08:10:27;2.13;;;1.93;;
10847;SDS011;5477;48.806;9.154;2023-12-20T08:12:56;2.00;;;1.80;;
10847;SDS011;5477;48.806;9.154;2023-12-20T08:15:24;2.00;;;1.80;;
10847;SDS011;5477;48.806;9.154;2023-12-20T08:17:52;4.63;;;2.43;;
10847;SDS011;5477;48.806;9.154;2023-12-20T08:20:20;4.50;;;2.00;;
10847;SDS011;5477;48.806;9.154;2023-12-20T08:22:59;3.13;;;2.27;;
10847;SDS011;5477;48.806;9.154;2023-12-20T08:25:27;4.17;;;2.70;;
10847;SDS011;5477;48.806;9.154;2023-12-20T08:27:55;2.97;;;2.10;;
10847;SDS011;5477;48.806;9.154;2023-12-20T08:30:24;3.13;;;2.20;;
10847;SDS011;5477;48.806;9.154;2023-12-20T08:32:52;2.47;;;2.00;;
10847;SDS011;5477;48.806;9.154;2023-12-20T08:35:20;2.93;;;2.10;;
10847;SDS011;5477;48.806;9.154;2023-12-20T08:37:48;2.90;;;1.77;;
10847;SDS011;5477;48.806;9.154;2023-12-20T08:40:17;3.03;;;1.90;;
10847;SDS011;5477;48.806;9.154;2023-12-20T08:42:46;3.23;;;2.00;;
10847;SDS011;5477;48.806;9.154;2023-12-20T08:45:14;3.17;;;1.97;;
10847;SDS011;5477;48.806;9.154;2023-12-20T08:47:44;2.77;;;1.93;;
10847;SDS011;5477;48.806;9.154;2023-12-20T08:50:13;2.60;;;1.50;;
10847;SDS011;5477;48.806;9.154;2023-12-20T08:52:41;3.23;;;1.87;;
10847;SDS011;5477;48.806;9.154;2023-12-20T08:55:10;3.30;;;1.87;;
10847;SDS011;5477;48.806;9.154;2023-12-20T08:57:40;2.00;;;1.80;;
10847;SDS011;5477;48.806;9.154;2023-12-20T09:00:09;3.87;;;3.00;;
10847;SDS011;5477;48.806;9.154;2023-12-20T09:02:38;4.57;;;3.10;;
10847;SDS011;5477;48.806;9.154;2023-12-20T09:05:06;4.07;;;1.97;;
10847;SDS011;5477;48.806;9.154;2023-12-20T09:07:35;3.27;;;2.10;;
10847;SDS011;5477;48.806;9.154;2023-12-20T09:10:03;3.65;;;2.28;;
10847;SDS011;5477;48.806;9.154;2023-12-20T09:12:32;2.20;;;2.00;;
10847;SDS011;5477;48.806;9.154;2023-12-20T09:15:01;3.40;;;2.33;;
10847;SDS011;5477;48.806;9.154;2023-12-20T09:17:29;2.40;;;2.20;;
10847;SDS011;5477;48.806;9.154;2023-12-20T09:19:58;3.27;;;2.10;;
10847;SDS011;5477;48.806;9.154;2023-12-20T09:22:27;3.17;;;2.17;;
10847;SDS011;5477;48.806;9.154;2023-12-20T09:24:55;2.73;;;2.00;;
10847;SDS011;5477;48.806;9.154;2023-12-20T09:27:23;2.40;;;1.87;;
10847;SDS011;5477;48.806;9.154;2023-12-20T09:29:51;2.17;;;1.80;;
10847;SDS011;5477;48.806;9.154;2023-12-20T09:32:21;5.33;;;1.83;;
10847;SDS011;5477;48.806;9.154;2023-12-20T09:34:49;2.67;;;1.30;;
10847;SDS011;5477;48.806;9.154;2023-12-20T09:37:17;2.37;;;1.57;;
10847;SDS011;5477;48.806;9.154;2023-12-20T09:39:45;3.50;;;1.40;;
10847;SDS011;5477;48.806;9.154;2023-12-20T09:42:14;4.50;;;1.50;;
10847;SDS011;5477;48.806;9.154;2023-12-20T09:44:48;4.10;;;1.60;;
10847;SDS011;5477;48.806;9.154;2023-12-20T09:47:16;6.00;;;1.50;;
10847;SDS011;5477;48.806;9.154;2023-12-20T09:49:50;3.17;;;1.57;;
10847;SDS011;5477;48.806;9.154;2023-12-20T09:52:19;2.70;;;1.40;;
10847;SDS011;5477;48.806;9.154;2023-12-20T09:54:50;3.53;;;1.20;;
10847;SDS011;5477;48.806;9.154;2023-12-20T09:57:21;3.90;;;1.13;;
10847;SDS011;5477;48.806;9.154;2023-12-20T09:59:49;3.03;;;1.37;;
10847;SDS011;5477;48.806;9.154;2023-12-20T10:02:17;4.53;;;1.70;;
10847;SDS011;5477;48.806;9.154;2023-12-20T10:04:54;3.77;;;1.60;;
10847;SDS011;5477;48.806;9.154;2023-12-20T10:07:22;3.10;;;1.60;;
10847;SDS011;5477;48.806;9.154;2023-12-20T10:09:51;3.33;;;1.43;;
10847;SDS011;5477;48.806;9.154;2023-12-20T10:12:21;3.80;;;1.40;;
10847;SDS011;5477;48.806;9.154;2023-12-20T10:14:50;3.27;;;1.10;;
10847;SDS011;5477;48.806;9.154;2023-12-20T10:17:18;4.60;;;1.47;;
10847;SDS011;5477;48.806;9.154;2023-12-20T10:19:51;3.67;;;1.27;;
10847;SDS011;5477;48.806;9.154;2023-12-20T10:22:19;5.20;;;1.40;;
10847;SDS011;5477;48.806;9.154;2023-12-20T10:24:49;3.80;;;1.30;;
10847;SDS011;5477;48.806;9.154;2023-12-20T10:27:17;4.43;;;1.50;;
10847;SDS011;5477;48.806;9.154;2023-12-20T10:29:46;5.27;;;1.83;;
10847;SDS011;5477;48.806;9.154;2023-12-20T10:32:21;6.20;;;2.17;;
10847;SDS011;5477;48.806;9.154;2023-12-20T10:34:52;3.63;;;1.40;;
10847;SDS011;5477;48.806;9.154;2023-12-20T10:37:23;5.10;;;1.50;;
10847;SDS011;5477;48.806;9.154;2023-12-20T10:39:52;3.63;;;1.83;;
10847;SDS011;5477;48.806;9.154;2023-12-20T10:42:23;4.10;;;1.90;;
10847;SDS011;5477;48.806;9.154;2023-12-20T10:44:53;6.47;;;2.17;;
10847;SDS011;5477;48.806;9.154;2023-12-20T10:47:22;4.07;;;1.87;;
10847;SDS011;5477;48.806;9.154;2023-12-20T10:49:54;6.20;;;1.80;;
10847;SDS011;5477;48.806;9.154;2023-12-20T10:52:23;4.07;;;1.17;;
10847;SDS011;5477;48.806;9.154;2023-12-20T10:54:53;4.83;;;1.30;;
10847;SDS011;5477;48.806;9.154;2023-12-20T10:57:22;2.37;;;1.40;;
10847;SDS011;5477;48.806;9.154;2023-12-20T10:59:50;5.40;;;1.47;;
10847;SDS011;5477;48.806;9.154;2023-12-20T11:02:21;4.73;;;1.53;;
10847;SDS011;5477;48.806;9.154;2023-12-20T11:04:51;3.90;;;1.50;;
10847;SDS011;5477;48.806;9.154;2023-12-20T11:07:25;5.73;;;1.57;;
10847;SDS011;5477;48.806;9.154;2023-12-20T11:10:00;4.47;;;1.60;;
10847;SDS011;5477;48.806;9.154;2023-12-20T11:12:36;6.10;;;1.27;;
10847;SDS011;5477;48.806;9.154;2023-12-20T11:15:08;5.60;;;1.47;;
10847;SDS011;5477;48.806;9.154;2023-12-20T11:17:38;3.43;;;1.30;;
10847;SDS011;5477;48.806;9.154;2023-12-20T11:20:09;3.57;;;1.60;;
10847;SDS011;5477;48.806;9.154;2023-12-20T11:22:38;4.50;;;1.50;;
10847;SDS011;5477;48.806;9.154;2023-12-20T11:25:19;3.83;;;1.47;;
10847;SDS011;5477;48.806;9.154;2023-12-20T11:30:40;4.07;;;1.93;;
10847;SDS011;5477;48.806;9.154;2023-12-20T11:33:09;1.47;;;1.10;;
10847;SDS011;5477;48.806;9.154;2023-12-20T11:35:39;4.57;;;1.30;;
10847;SDS011;5477;48.806;9.154;2023-12-20T11:38:08;4.73;;;1.30;;
10847;SDS011;5477;48.806;9.154;2023-12-20T11:40:36;4.67;;;1.90;;
10847;SDS011;5477;48.806;9.154;2023-12-20T11:43:05;3.63;;;1.43;;
10847;SDS011;5477;48.806;9.154;2023-12-20T11:45:33;4.27;;;1.30;;
10847;SDS011;5477;48.806;9.154;2023-12-20T11:48:02;5.37;;;1.30;;
10847;SDS011;5477;48.806;9.154;2023-12-20T11:50:31;5.47;;;1.10;;
10847;SDS011;5477;48.806;9.154;2023-12-20T11:53:01;3.13;;;1.20;;
10847;SDS011;5477;48.806;9.154;2023-12-20T11:55:29;3.77;;;1.43;;
10847;SDS011;5477;48.806;9.154;2023-12-20T11:57:57;4.57;;;1.63;;
10847;SDS011;5477;48.806;9.154;2023-12-20T12:00:25;3.90;;;1.50;;
10847;SDS011;5477;48.806;9.154;2023-12-20T12:02:57;4.63;;;1.97;;
10847;SDS011;5477;48.806;9.154;2023-12-20T12:05:25;5.50;;;1.67;;
10847;SDS011;5477;48.806;9.154;2023-12-20T12:07:54;4.27;;;1.70;;
10847;SDS011;5477;48.806;9.154;2023-12-20T12:10:23;4.87;;;1.87;;
10847;SDS011;5477;48.806;9.154;2023-12-20T12:12:51;4.70;;;3.30;;
10847;SDS011;5477;48.806;9.154;2023-12-20T12:15:19;5.60;;;1.73;;
10847;SDS011;5477;48.806;9.154;2023-12-20T12:17:52;2.60;;;1.33;;
10847;SDS011;5477;48.806;9.154;2023-12-20T12:20:21;6.87;;;1.73;;
10847;SDS011;5477;48.806;9.154;2023-12-20T12:22:57;4.93;;;1.40;;
10847;SDS011;5477;48.806;9.154;2023-12-20T12:25:28;5.07;;;1.40;;
10847;SDS011;5477;48.806;9.154;2023-12-20T12:27:56;3.83;;;1.70;;
10847;SDS011;5477;48.806;9.154;2023-12-20T12:30:25;5.30;;;2.17;;
10847;SDS011;5477;48.806;9.154;2023-12-20T12:33:00;5.33;;;2.00;;
10847;SDS011;5477;48.806;9.154;2023-12-20T12:35:28;4.03;;;1.60;;
10847;SDS011;5477;48.806;9.154;2023-12-20T12:37:58;2.30;;;1.23;;
10847;SDS011;5477;48.806;9.154;2023-12-20T12:40:28;4.50;;;1.70;;
10847;SDS011;5477;48.806;9.154;2023-12-20T12:42:56;4.70;;;1.50;;
10847;SDS011;5477;48.806;9.154;2023-12-20T12:45:24;3.47;;;1.27;;
10847;SDS011;5477;48.806;9.154;2023-12-20T12:47:53;5.00;;;1.37;;
10847;SDS011;5477;48.806;9.154;2023-12-20T12:50:21;4.80;;;1.30;;
10847;SDS011;5477;48.806;9.154;2023-12-20T12:52:50;6.07;;;1.40;;
10847;SDS011;5477;48.806;9.154;2023-12-20T12:55:18;7.50;;;1.83;;
10847;SDS011;5477;48.806;9.154;2023-12-20T12:57:47;5.93;;;1.40;;
10847;SDS011;5477;48.806;9.154;2023-12-20T13:00:15;4.50;;;1.50;;
10847;SDS011;5477;48.806;9.154;2023-12-20T13:02:44;2.83;;;1.23;;
10847;SDS011;5477;48.806;9.154;2023-12-20T13:05:12;2.73;;;1.30;;
10847;SDS011;5477;48.806;9.154;2023-12-20T13:07:40;4.20;;;1.63;;
10847;SDS011;5477;48.806;9.154;2023-12-20T13:10:12;3.37;;;1.23;;
10847;SDS011;5477;48.806;9.154;2023-12-20T13:12:42;6.13;;;1.53;;
10847;SDS011;5477;48.806;9.154;2023-12-20T13:15:12;2.27;;;1.27;;
10847;SDS011;5477;48.806;9.154;2023-12-20T13:17:40;5.70;;;1.23;;
10847;SDS011;5477;48.806;9.154;2023-12-20T13:20:09;2.87;;;1.50;;
10847;SDS011;5477;48.806;9.154;2023-12-20T13:22:37;3.90;;;1.20;;
10847;SDS011;5477;48.806;9.154;2023-12-20T13:25:05;1.57;;;1.20;;
10847;SDS011;5477;48.806;9.154;2023-12-20T13:27:34;3.17;;;1.07;;
10847;SDS011;5477;48.806;9.154;2023-12-20T13:30:03;3.27;;;1.20;;
10847;SDS011;5477;48.806;9.154;2023-12-20T13:32:33;2.33;;;0.93;;
10847;SDS011;5477;48.806;9.154;2023-12-20T13:35:02;2.07;;;1.00;;
10847;SDS011;5477;48.806;9.154;2023-12-20T13:37:30;3.37;;;1.30;;
10847;SDS011;5477;48.806;9.154;2023-12-20T13:39:58;5.07;;;1.10;;
10847;SDS011;5477;48.806;9.154;2023-12-20T13:42:27;1.40;;;1.10;;
10847;SDS011;5477;48.806;9.154;2023-12-20T13:44:55;3.83;;;1.30;;
10847;SDS011;5477;48.806;9.154;2023-12-20T13:47:23;5.03;;;1.50;;
10847;SDS011;5477;48.806;9.154;2023-12-20T13:49:53;3.37;;;1.20;;
10847;SDS011;5477;48.806;9.154;2023-12-20T13:52:22;5.03;;;1.30;;
10847;SDS011;5477;48.806;9.154;2023-12-20T13:54:50;3.50;;;1.10;;
10847;SDS011;5477;48.806;9.154;2023-12-20T13:57:18;3.43;;;1.30;;
10847;SDS011;5477;48.806;9.154;2023-12-20T14:00:07;2.57;;;1.00;;
10847;SDS011;5477;48.806;9.154;2023-12-20T14:02:41;3.83;;;1.27;;
10847;SDS011;5477;48.806;9.154;2023-12-20T14:05:10;3.30;;;1.37;;
10847;SDS011;5477;48.806;9.154;2023-12-20T14:07:40;2.53;;;1.10;;
10847;SDS011;5477;48.806;9.154;2023-12-20T14:10:11;3.97;;;1.20;;
10847;SDS011;5477;48.806;9.154;2023-12-20T14:12:40;3.73;;;1.13;;
10847;SDS011;5477;48.806;9.154;2023-12-20T14:15:09;3.10;;;1.10;;
10847;SDS011;5477;48.806;9.154;2023-12-20T14:17:37;3.73;;;1.27;;
10847;SDS011;5477;48.806;9.154;2023-12-20T14:20:06;4.43;;;1.30;;
10847;SDS011;5477;48.806;9.154;2023-12-20T14:22:36;5.33;;;1.40;;
10847;SDS011;5477;48.806;9.154;2023-12-20T14:25:05;2.40;;;1.20;;
10847;SDS011;5477;48.806;9.154;2023-12-20T14:27:35;3.77;;;1.30;;
10847;SDS011;5477;48.806;9.154;2023-12-20T14:30:03;1.87;;;1.13;;
10847;SDS011;5477;48.806;9.154;2023-12-20T14:32:34;3.60;;;1.30;;
10847;SDS011;5477;48.806;9.154;2023-12-20T14:35:03;3.77;;;1.53;;
10847;SDS011;5477;48.806;9.154;2023-12-20T14:37:32;2.83;;;1.30;;
10847;SDS011;5477;48.806;9.154;2023-12-20T14:40:02;3.80;;;1.60;;
10847;SDS011;5477;48.806;9.154;2023-12-20T14:42:30;4.27;;;1.53;;
10847;SDS011;5477;48.806;9.154;2023-12-20T14:44:58;3.43;;;1.80;;
10847;SDS011;5477;48.806;9.154;2023-12-20T14:47:27;5.47;;;2.50;;
10847;SDS011;5477;48.806;9.154;2023-12-20T14:49:55;6.27;;;1.60;;
10847;SDS011;5477;48.806;9.154;2023-12-20T14:52:23;2.33;;;1.37;;
10847;SDS011;5477;48.806;9.154;2023-12-20T14:54:51;7.80;;;3.10;;
10847;SDS011;5477;48.806;9.154;2023-12-20T14:57:21;5.97;;;3.33;;
10847;SDS011;5477;48.806;9.154;2023-12-20T14:59:49;6.87;;;1.73;;
10847;SDS011;5477;48.806;9.154;2023-12-20T15:02:17;8.23;;;3.13;;
10847;SDS011;5477;48.806;9.154;2023-12-20T15:04:45;6.37;;;2.73;;
10847;SDS011;5477;48.806;9.154;2023-12-20T15:07:13;7.27;;;3.93;;
10847;SDS011;5477;48.806;9.154;2023-12-20T15:09:41;6.77;;;3.43;;
10847;SDS011;5477;48.806;9.154;2023-12-20T15:12:12;5.03;;;2.90;;
10847;SDS011;5477;48.806;9.154;2023-12-20T15:14:41;5.93;;;3.03;;